Latest Weather Observations for Cape Nelson

IDV60801

Issued at 5:02 pm EDT Monday 27 March 2017 (issued every 30 minutes, with the page automatically refreshed every 10 minutes)

About weather observations | Map of weather stations | Latest weather observations for VIC | Other Formats
Station Details ID: 090184 Name: CAPE NELSON LIGHTHOUSE Lat: -38.43 Lon: 141.54 Height: 45.4 m
Data from the previous 72 hours. | See also: Recent months at Cape Nelson
Date/Time
EDT
Temp
°C
App
Temp
°C
Dew
Point
°C
Rel
Hum
%
Delta-T
°C
Wind Press
QNH
hPa
Press
MSL
hPa
Rain since
9am
mm
Dir  Spd
km/h
Gust
km/h
Spd
kts
Gust
kts
27/04:30pm 18.8 12.8 13.2 70 3.2 WNW 37 50 20 27 1010.0 1009.9 1.2
27/04:00pm 19.0 12.5 13.0 68 3.4 WNW 39 54 21 29 1009.7 1009.6 1.2
27/03:30pm 19.1 12.5 13.7 71 3.1 WNW 41 56 22 30 1009.5 1009.4 1.2
27/03:00pm 19.0 12.4 13.6 71 3.1 WNW 41 54 22 29 1009.3 1009.2 1.2
27/02:30pm 19.2 13.2 14.5 74 2.7 NW 39 57 21 31 1009.3 1009.2 1.2
27/02:14pm 18.8 13.8 15.1 79 2.2 NW 35 54 19 29 1009.4 1009.3 1.2
27/02:00pm 18.5 14.1 15.6 83 1.7 NW 33 48 18 26 1009.4 1009.3 1.2
27/01:30pm 16.3 11.1 14.5 89 1.0 NW 35 50 19 27 1009.3 1009.2 1.2
27/01:00pm 15.7 11.3 14.1 90 0.9 NW 30 43 16 23 1009.0 1008.9 1.2
27/12:30pm 15.0 10.7 13.2 89 1.0 NW 28 41 15 22 1008.4 1008.3 1.2
27/12:00pm 14.8 9.6 12.7 87 1.2 WNW 32 44 17 24 1008.8 1008.7 1.0
27/11:30am 15.1 10.0 13.0 87 1.2 WNW 32 48 17 26 1009.1 1009.0 0.4
27/11:00am 15.9 9.7 11.5 75 2.4 W 35 54 19 29 1008.2 1008.1 0.0
27/10:30am 16.8 10.4 13.3 80 2.0 W 39 57 21 31 1007.5 1007.4 0.0
27/10:00am 17.2 11.9 15.2 88 1.2 WNW 37 56 20 30 1005.9 1005.8 0.0
27/09:30am 18.0 12.9 15.8 87 1.3 WNW 37 50 20 27 1005.0 1004.9 0.0
27/09:00am 18.2 12.6 15.6 85 1.5 WNW 39 52 21 28 1004.0 1004.0 0.0
27/08:30am 18.7 13.7 15.0 79 2.2 NW 35 56 19 30 1003.5 1003.5 0.0
27/08:00am 19.9 14.5 14.9 73 2.9 NW 37 50 20 27 1002.4 1002.3 0.0
27/07:30am 21.0 15.5 13.7 63 4.2 WNW 35 50 19 27 1001.4 1001.3 0.0
27/07:21am 24.4 19.4 13.3 50 6.5 NW 32 50 17 27 1001.0 1000.9 0.0
27/07:19am 27.4 22.8 13.4 42 8.3 NW 30 44 16 24 1001.0 1000.9 0.0
27/07:00am 28.0 21.2 13.1 39 8.8 N 41 59 22 32 999.9 999.8 0.0
27/06:30am 27.6 20.9 13.5 41 8.4 N 41 59 22 32 998.7 998.6 0.0
27/06:00am 26.7 19.7 13.8 45 7.7 N 43 65 23 35 998.2 998.1 0.0
27/05:30am 26.8 20.3 13.9 45 7.7 N 41 63 22 34 998.8 998.7 0.0
27/05:01am 26.5 21.1 13.9 45 7.5 N 35 54 19 29 999.4 999.3 0.0
27/05:00am 26.5 20.7 13.9 45 7.5 N 37 54 20 29 999.4 999.3 0.0
27/04:30am 26.3 20.2 14.1 47 7.3 N 39 57 21 31 1000.1 1000.0 0.0
27/04:06am 26.0 19.9 14.1 47 7.1 N 39 61 21 33 1000.4 1000.3 0.0
27/04:00am 26.0 19.9 14.1 47 7.1 N 39 54 21 29 1000.5 1000.4 0.0
27/03:44am 25.5 20.5 14.0 49 6.8 N 33 56 18 30 1001.1 1001.0 0.0
27/03:30am 25.3 20.9 14.1 50 6.6 N 30 44 16 24 1001.7 1001.6 0.0
27/03:10am 24.9 19.6 14.1 51 6.4 N 35 54 19 29 1001.8 1001.7 0.0
27/03:00am 24.8 19.0 14.0 51 6.4 N 37 54 20 29 1001.7 1001.6 0.0
27/02:56am 24.6 19.3 14.1 52 6.2 N 35 54 19 29 1002.0 1001.9 0.0
27/02:30am 24.5 19.5 14.0 52 6.2 N 33 48 18 26 1002.8 1002.7 0.0
27/02:01am 24.4 19.7 14.2 53 6.0 N 32 50 17 27 1003.4 1003.4 0.0
27/02:00am 24.4 19.4 13.9 52 6.2 N 33 50 18 27 1003.4 1003.4 0.0
27/01:57am 24.2 19.8 14.0 53 6.0 N 30 50 16 27 1003.5 1003.5 0.0
27/01:30am 23.9 19.1 14.0 54 5.8 N 32 46 17 25 1003.9 1003.9 0.0
27/01:00am 23.9 18.9 14.0 54 5.8 N 33 46 18 25 1004.6 1004.5 0.0
27/12:41am 23.8 19.1 14.2 55 5.7 N 32 50 17 27 1005.0 1004.9 0.0
27/12:30am 23.8 19.0 14.5 56 5.5 N 33 44 18 24 1005.3 1005.2 0.0
27/12:00am 23.1 19.3 14.7 59 5.0 N 28 39 15 21 1005.5 1005.4 0.0
 
Date/Time
EDT
Temp
°C
App
Temp
°C
Dew
Point
°C
Rel
Hum
%
Delta-T
°C
Wind Press
QNH
hPa
Press
MSL
hPa
Rain since
9am
mm
Dir  Spd
km/h
Gust
km/h
Spd
kts
Gust
kts
26/11:30pm 22.9 18.7 14.7 60 4.9 N 30 41 16 22 1005.9 1005.8 0.0
26/11:00pm 22.8 18.9 15.4 63 4.4 N 30 39 16 21 1007.0 1006.9 0.0
26/10:30pm 22.2 19.4 15.3 65 4.1 N 24 35 13 19 1007.7 1007.6 0.0
26/10:00pm 20.7 19.8 16.9 79 2.3 NNE 17 24 9 13 1008.1 1008.0 0.0
26/09:30pm 19.1 18.1 16.7 86 1.4 NNE 17 22 9 12 1008.5 1008.4 0.0
26/09:00pm 18.4 16.3 16.2 87 1.3 NNE 22 28 12 15 1008.4 1008.3 0.0
26/08:30pm 18.3 16.2 16.1 87 1.3 NE 22 30 12 16 1008.3 1008.2 0.0
26/08:00pm 18.3 16.1 15.9 86 1.4 ENE 22 28 12 15 1008.6 1008.5 0.0
26/07:30pm 18.3 16.4 15.7 85 1.5 ENE 20 28 11 15 1009.0 1008.9 0.0
26/07:00pm 18.3 16.9 15.6 84 1.6 ENE 17 22 9 12 1009.3 1009.2 0.0
26/06:30pm 19.0 17.2 16.0 83 1.8 ENE 20 24 11 13 1009.5 1009.4 0.0
26/06:00pm 19.0 17.4 16.0 83 1.8 ENE 19 28 10 15 1009.7 1009.6 0.0
26/05:30pm 19.0 16.3 15.5 80 2.1 ENE 24 30 13 16 1009.8 1009.7 0.0
26/05:00pm 19.7 17.8 15.8 78 2.3 ENE 20 28 11 15 1010.1 1010.0 0.0
26/04:30pm 20.4 18.8 16.0 76 2.6 ENE 19 26 10 14 1010.4 1010.3 0.0
26/04:00pm 20.6 19.1 16.2 76 2.7 ENE 19 24 10 13 1011.2 1011.1 0.0
26/03:30pm 20.4 18.6 15.4 73 3.0 E 19 24 10 13 1011.7 1011.6 0.0
26/03:00pm 21.0 19.8 16.0 73 3.0 E 17 20 9 11 1012.3 1012.2 0.0
26/02:30pm 20.4 18.6 15.4 73 3.0 E 19 24 10 13 1012.5 1012.4 0.0
26/02:00pm 20.6 19.4 16.0 75 2.8 E 17 22 9 12 1012.9 1012.8 0.0
26/01:30pm 19.9 18.0 15.3 75 2.7 E 19 24 10 13 1013.4 1013.3 0.0
26/01:00pm 20.1 18.5 15.9 77 2.5 E 19 24 10 13 1014.0 1013.9 0.0
26/12:30pm 19.2 17.8 15.5 79 2.2 E 17 24 9 13 1014.1 1014.0 0.0
26/12:00pm 19.1 17.2 15.2 78 2.3 E 19 24 10 13 1014.3 1014.2 0.0
26/11:30am 19.1 18.0 15.2 78 2.3 E 15 20 8 11 1014.9 1014.8 0.0
26/11:00am 18.1 16.4 14.6 80 2.0 E 17 19 9 10 1014.8 1014.7 0.0
26/10:30am 18.2 18.0 14.7 80 2.0 ESE 9 13 5 7 1015.1 1015.0 0.0
26/10:00am 17.9 18.1 14.6 81 1.9 ESE 7 13 4 7 1015.4 1015.3 0.0
26/09:30am 17.5 17.7 14.2 81 1.9 SE 6 7 3 4 1015.5 1015.4 0.0
26/09:00am 17.4 17.1 14.3 82 1.8 SSE 9 13 5 7 1015.4 1015.3 0.0
26/08:30am 17.2 17.2 14.1 82 1.8 SE 7 11 4 6 1015.1 1015.0 0.0
26/08:00am 16.9 16.5 14.0 83 1.7 ESE 9 17 5 9 1014.9 1014.8 0.0
26/07:30am 16.8 16.9 13.9 83 1.6 ESE 6 9 3 5 1014.5 1014.4 0.0
26/07:00am 16.8 17.3 14.1 84 1.5 ESE 4 11 2 6 1014.1 1014.0 0.0
26/06:30am 16.7 18.0 14.0 84 1.5 CALM 0 0 0 0 1014.2 1014.1 0.0
26/06:00am 16.8 17.3 13.9 83 1.6 S 4 9 2 5 1014.0 1013.9 0.0
26/05:30am 16.7 18.0 14.0 84 1.5 CALM 0 0 0 0 1013.9 1013.8 0.0
26/05:00am 16.7 18.0 14.0 84 1.5 CALM 0 0 0 0 1013.9 1013.8 0.0
26/04:30am 16.7 17.9 13.8 83 1.6 CALM 0 0 0 0 1013.9 1013.8 0.0
26/04:00am 16.8 18.0 13.9 83 1.6 CALM 0 0 0 0 1014.1 1014.0 0.0
26/03:30am 16.9 18.1 13.8 82 1.8 CALM 0 0 0 0 1014.4 1014.3 0.0
26/03:00am 17.0 17.1 13.9 82 1.8 S 6 9 3 5 1014.2 1014.1 0.0
26/02:30am 17.0 17.1 13.9 82 1.8 S 6 9 3 5 1014.7 1014.6 0.0
26/02:00am 17.1 18.4 14.0 82 1.8 CALM 0 0 0 0 1014.8 1014.7 0.0
26/01:30am 17.2 17.7 13.9 81 1.9 SW 4 9 2 5 1014.8 1014.7 0.0
26/01:00am 17.2 17.2 13.7 80 2.0 SW 6 7 3 4 1015.0 1014.9 0.0
26/12:30am 17.3 16.0 13.8 80 2.0 S 13 19 7 10 1014.8 1014.7 0.0
26/12:00am 17.4 17.4 14.1 81 1.9 N 7 11 4 6 1015.3 1015.2 0.0
 
Date/Time
EDT
Temp
°C
App
Temp
°C
Dew
Point
°C
Rel
Hum
%
Delta-T
°C
Wind Press
QNH
hPa
Press
MSL
hPa
Rain since
9am
mm
Dir  Spd
km/h
Gust
km/h
Spd
kts
Gust
kts
25/11:30pm 17.6 16.3 14.7 83 1.7 S 15 19 8 10 1015.1 1015.0 0.0
25/11:00pm 17.7 18.1 15.3 86 1.4 ESE 7 13 4 7 1015.3 1015.2 0.0
25/10:30pm 17.2 17.2 15.2 88 1.2 SE 9 15 5 8 1015.3 1015.2 0.0
25/10:00pm 17.7 16.1 15.9 89 1.1 S 19 22 10 12 1015.0 1014.9 0.0
25/09:30pm 17.7 16.1 15.9 89 1.1 S 19 24 10 13 1014.9 1014.8 0.0
25/09:00pm 17.8 18.1 16.0 89 1.1 S 9 15 5 8 1014.5 1014.4 0.0
25/08:30pm 17.7 17.6 15.9 89 1.1 W 11 20 6 11 1014.2 1014.1 0.0
25/08:00pm 17.8 18.7 16.0 89 1.1 NNW 6 9 3 5 1013.8 1013.7 0.0
25/07:30pm 17.9 18.2 16.1 89 1.1 NNW 9 13 5 7 1013.8 1013.7 0.0
25/07:00pm 18.0 18.0 16.2 89 1.1 WNW 11 17 6 9 1013.5 1013.4 0.0
25/06:30pm 17.9 17.1 16.1 89 1.1 W 15 17 8 9 1013.3 1013.2 0.0
25/06:00pm 18.1 17.4 16.3 89 1.1 W 15 19 8 10 1013.1 1013.0 0.0
25/05:30pm 18.2 17.9 16.4 89 1.1 W 13 19 7 10 1012.9 1012.8 0.0
25/05:00pm 18.5 18.2 16.5 88 1.2 W 13 20 7 11 1012.8 1012.7 0.0
25/04:30pm 19.0 18.8 16.8 87 1.3 W 13 19 7 10 1012.6 1012.5 0.0
25/04:00pm 19.3 19.7 17.3 88 1.2 N 11 15 6 8 1012.2 1012.1 0.0
25/03:30pm 18.5 18.2 16.5 88 1.2 N 13 20 7 11 1012.3 1012.2 0.0
25/03:00pm 18.3 16.5 16.1 87 1.3 W 20 30 11 16 1012.3 1012.2 0.0
25/02:30pm 19.4 18.0 16.6 84 1.7 W 19 26 10 14 1012.3 1012.2 0.0
25/02:00pm 19.7 18.3 16.5 82 1.9 W 19 28 10 15 1012.2 1012.1 0.0
25/01:30pm 20.2 18.6 16.4 79 2.3 WNW 20 24 11 13 1012.3 1012.2 0.0
25/01:00pm 20.1 18.1 15.5 75 2.7 WNW 20 26 11 14 1012.4 1012.3 0.0
25/12:30pm 21.1 19.5 16.1 73 3.0 WNW 19 24 10 13 1012.6 1012.5 0.0
25/12:00pm 22.5 21.7 16.1 67 3.9 WNW 15 19 8 10 1012.6 1012.5 0.0
25/11:30am 23.3 22.3 16.6 66 4.1 WNW 17 20 9 11 1012.5 1012.4 0.0
25/11:00am 22.9 21.7 16.2 66 4.1 WNW 17 20 9 11 1012.4 1012.3 0.0
25/10:30am 22.8 22.1 16.4 67 3.9 WNW 15 22 8 12 1012.3 1012.2 0.0
25/10:00am 22.3 20.9 15.6 66 4.0 WNW 17 20 9 11 1012.3 1012.2 0.0
25/09:30am 22.2 20.7 15.3 65 4.1 WNW 17 22 9 12 1011.9 1011.8 0.0
25/09:00am 20.0 18.8 15.0 73 2.9 NW 15 17 8 9 1011.5 1011.4 0.2
25/08:30am 19.2 18.4 15.1 77 2.4 NNW 13 17 7 9 1011.5 1011.4 0.2
25/08:00am 18.6 17.7 14.9 79 2.2 NW 13 15 7 8 1011.2 1011.1 0.2
25/07:30am 18.3 17.0 14.8 80 2.0 WNW 15 19 8 10 1011.0 1010.9 0.2
25/07:00am 17.8 16.8 14.5 81 1.9 WNW 13 15 7 8 1010.6 1010.5 0.2
25/06:30am 17.9 16.4 14.2 79 2.1 WNW 15 20 8 11 1010.5 1010.4 0.2
25/06:00am 20.9 19.5 14.5 67 3.8 NNW 15 22 8 12 1010.3 1010.2 0.2
25/05:30am 20.6 18.4 14.5 68 3.6 N 19 24 10 13 1010.1 1010.0 0.2
25/05:00am 20.6 17.8 14.3 67 3.7 N 22 32 12 17 1010.0 1009.9 0.2
25/04:30am 20.1 17.2 15.1 73 2.9 N 24 35 13 19 1010.0 1009.9 0.2
25/04:00am 19.1 17.1 15.6 80 2.1 N 20 28 11 15 1010.2 1010.1 0.2
25/03:30am 18.5 16.7 15.6 83 1.7 NNE 19 22 10 12 1010.5 1010.4 0.2
25/03:00am 18.4 16.7 15.8 85 1.5 NNE 19 24 10 13 1010.8 1010.7 0.2
25/02:30am 18.0 16.7 15.8 87 1.3 NNE 17 28 9 15 1011.1 1011.0 0.2
25/02:00am 18.0 15.8 16.0 88 1.2 NE 22 26 12 14 1011.2 1011.1 0.2
25/01:30am 18.0 16.4 16.0 88 1.2 NE 19 24 10 13 1011.5 1011.4 0.2
25/01:00am 17.8 16.2 16.0 89 1.1 NE 19 20 10 11 1012.0 1011.9 0.2
25/12:30am 17.6 16.3 15.9 90 1.0 NE 17 24 9 13 1012.6 1012.5 0.2
25/12:00am 17.4 15.1 15.6 89 1.1 NE 22 28 12 15 1012.8 1012.7 0.2
 
Date/Time
EDT
Temp
°C
App
Temp
°C
Dew
Point
°C
Rel
Hum
%
Delta-T
°C
Wind Press
QNH
hPa
Press
MSL
hPa
Rain since
9am
mm
Dir  Spd
km/h
Gust
km/h
Spd
kts
Gust
kts
24/11:30pm 17.2 15.4 15.4 89 1.1 NE 19 22 10 12 1012.8 1012.7 0.2
24/11:00pm 17.1 14.9 14.9 87 1.3 NE 20 24 11 13 1013.2 1013.1 0.2
24/10:30pm 17.6 16.7 14.9 84 1.6 NE 13 17 7 9 1014.3 1014.2 0.0
24/10:00pm 17.6 17.1 14.9 84 1.6 NE 11 15 6 8 1014.8 1014.7 0.0
24/09:30pm 17.6 16.4 15.0 85 1.5 NE 15 20 8 11 1014.4 1014.3 0.0
24/09:00pm 17.4 15.8 15.0 86 1.4 NE 17 20 9 11 1014.5 1014.4 0.0
24/08:30pm 17.4 15.8 15.0 86 1.4 NE 17 20 9 11 1014.2 1014.1 0.0
24/08:00pm 17.6 16.4 15.0 85 1.5 NE 15 20 8 11 1014.4 1014.3 0.0
24/07:30pm 17.8 16.7 15.2 85 1.5 ENE 15 19 8 10 1014.7 1014.6 0.0
24/07:00pm 18.0 16.9 15.4 85 1.5 ENE 15 20 8 11 1015.0 1014.9 0.0
24/06:30pm 18.3 17.7 15.6 84 1.6 E 13 19 7 10 1015.3 1015.2 0.0
24/06:00pm 18.4 17.4 15.6 84 1.7 E 15 19 8 10 1015.5 1015.4 0.0
24/05:30pm 18.3 16.8 15.4 83 1.7 ENE 17 20 9 11 1015.3 1015.2 0.0

Other Formats:

Comma delimited format used in spreadsheet applications
http://www.bom.gov.au/fwo/IDV60801/IDV60801.94826.axf

JavaScript Object Notation format (JSON) in row-major order
http://www.bom.gov.au/fwo/IDV60801/IDV60801.94826.json